createdAt,value
2019-01-16T00:01:41.601Z,14.70
2019-01-16T00:04:47.804Z,14.70
2019-01-16T00:07:34.797Z,14.20
2019-01-16T00:10:23.255Z,14.78
2019-01-16T00:12:58.445Z,14.63
2019-01-16T00:15:45.176Z,14.10
2019-01-16T00:18:31.958Z,13.38
2019-01-16T00:21:15.323Z,13.60
2019-01-16T00:24:01.393Z,12.82
2019-01-16T00:26:55.735Z,12.85
2019-01-16T00:29:42.525Z,12.30
2019-01-16T00:32:33.322Z,12.85
2019-01-16T00:35:19.965Z,12.70
2019-01-16T00:38:08.055Z,11.95
2019-01-16T00:41:14.275Z,12.20
2019-01-16T00:44:02.320Z,12.35
2019-01-16T00:47:09.535Z,12.33
2019-01-16T00:49:57.506Z,12.30
2019-01-16T00:52:48.308Z,12.53
2019-01-16T00:55:34.902Z,12.50
2019-01-16T00:58:28.324Z,12.90
2019-01-16T01:01:11.801Z,13.72
2019-01-16T01:03:58.665Z,13.32
2019-01-16T01:06:45.265Z,13.38
2019-01-16T01:09:27.435Z,14.15
2019-01-16T01:12:21.992Z,13.63
2019-01-16T01:15:15.764Z,14.25
2019-01-16T01:18:06.957Z,13.70
2019-01-16T01:21:00.984Z,13.95
2019-01-16T01:23:47.601Z,13.68
2019-01-16T01:26:38.670Z,14.23
2019-01-16T01:29:35.879Z,13.68
2019-01-16T01:32:36.293Z,14.15
2019-01-16T01:35:36.539Z,14.55
2019-01-16T01:38:30.878Z,13.08
2019-01-16T01:41:28.200Z,13.45
2019-01-16T01:44:12.856Z,13.55
2019-01-16T01:47:13.004Z,13.50
2019-01-16T01:50:19.414Z,13.03
2019-01-16T01:53:10.246Z,13.15
2019-01-16T01:55:58.249Z,11.97
2019-01-16T01:59:01.728Z,12.33
2019-01-16T02:01:48.307Z,12.35
2019-01-16T02:04:45.179Z,12.37
2019-01-16T02:07:31.983Z,12.28
2019-01-16T02:10:26.749Z,12.37
2019-01-16T02:13:20.872Z,12.80
2019-01-16T02:15:58.348Z,12.53
2019-01-16T02:19:01.820Z,11.97
2019-01-16T02:21:49.855Z,12.33
2019-01-16T02:24:32.119Z,11.70
2019-01-16T02:27:20.857Z,11.35
2019-01-16T02:30:07.343Z,11.08
2019-01-16T02:32:58.473Z,11.33
2019-01-16T02:35:44.838Z,11.43
2019-01-16T02:38:42.136Z,11.53
2019-01-16T02:41:20.711Z,11.80
2019-01-16T02:44:11.515Z,11.50
2019-01-16T02:46:58.169Z,11.50
2019-01-16T02:49:44.803Z,11.08
2019-01-16T02:52:31.710Z,11.25
2019-01-16T02:55:31.604Z,11.20
2019-01-16T02:58:25.168Z,11.63
2019-01-16T03:01:15.947Z,11.73
2019-01-16T03:04:03.922Z,11.55
2019-01-16T03:06:50.718Z,11.48
2019-01-16T03:09:38.765Z,11.35
2019-01-16T03:12:45.131Z,11.35
2019-01-16T03:15:33.156Z,10.90
2019-01-16T03:18:24.063Z,11.40
2019-01-16T03:21:10.892Z,11.97
2019-01-16T03:23:58.037Z,11.63
2019-01-16T03:26:49.260Z,11.30
2019-01-16T03:29:52.698Z,11.83
2019-01-16T03:32:58.824Z,11.75
2019-01-16T03:35:56.755Z,11.22
2019-01-16T03:38:43.569Z,11.35
2019-01-16T03:41:28.490Z,11.50
2019-01-16T03:44:19.347Z,11.35
2019-01-16T03:46:56.545Z,11.17
2019-01-16T03:49:43.435Z,11.03
2019-01-16T03:52:34.503Z,10.93
2019-01-16T03:55:31.596Z,11.40
2019-01-16T03:58:22.428Z,11.40
2019-01-16T04:01:09.217Z,11.22
2019-01-16T04:04:03.114Z,10.95
2019-01-16T04:06:48.879Z,10.80
2019-01-16T04:09:39.905Z,10.53
2019-01-16T04:12:32.349Z,10.68
2019-01-16T04:15:26.203Z,10.98
2019-01-16T04:18:14.177Z,11.15
2019-01-16T04:21:05.214Z,10.45
2019-01-16T04:23:42.742Z,10.48
2019-01-16T04:26:46.153Z,10.40
2019-01-16T04:29:32.751Z,10.90
2019-01-16T04:32:38.875Z,10.98
2019-01-16T04:35:35.880Z,10.48
2019-01-16T04:38:30.259Z,11.43
2019-01-16T04:41:18.379Z,10.60
2019-01-16T04:44:06.455Z,10.32
2019-01-16T04:47:00.645Z,10.03
2019-01-16T04:49:51.689Z,10.13
2019-01-16T04:52:46.005Z,10.35
2019-01-16T04:55:34.013Z,11.07
2019-01-16T04:58:24.873Z,9.73
2019-01-16T05:01:05.249Z,9.33
2019-01-16T05:04:11.454Z,9.95
2019-01-16T05:07:02.373Z,9.68
2019-01-16T05:09:42.293Z,8.53
2019-01-16T05:12:48.709Z,9.30
2019-01-16T05:15:37.521Z,9.20
2019-01-16T05:18:32.967Z,9.70
2019-01-16T05:21:24.420Z,9.60
2019-01-16T05:24:22.432Z,9.80
2019-01-16T05:27:10.902Z,9.95
2019-01-16T05:30:16.074Z,10.35
2019-01-16T05:33:04.253Z,9.63
2019-01-16T05:35:53.119Z,9.33
2019-01-16T05:38:43.896Z,8.88
2019-01-16T05:41:36.847Z,9.18
2019-01-16T05:44:33.914Z,8.63
2019-01-16T05:47:22.017Z,9.35
2019-01-16T05:50:22.409Z,8.70
2019-01-16T05:53:13.419Z,8.08
2019-01-16T05:56:19.524Z,8.63
2019-01-16T05:59:16.754Z,8.03
2019-01-16T06:02:14.740Z,8.35
2019-01-16T06:05:11.735Z,8.05
2019-01-16T06:08:02.839Z,7.83
2019-01-16T06:10:51.778Z,8.03
2019-01-16T06:13:49.071Z,7.80
2019-01-16T06:16:45.553Z,7.17
2019-01-16T06:19:32.018Z,7.78
2019-01-16T06:22:18.624Z,7.72
2019-01-16T06:25:10.015Z,8.43
2019-01-16T06:28:10.653Z,8.03
2019-01-16T06:31:04.778Z,7.30
2019-01-16T06:34:00.572Z,7.85
2019-01-16T06:37:08.180Z,8.50
2019-01-16T06:39:56.211Z,7.80
2019-01-16T06:42:44.359Z,7.85
2019-01-16T06:45:32.419Z,7.90
2019-01-16T06:48:32.877Z,8.10
2019-01-16T06:51:29.456Z,6.87
2019-01-16T06:54:28.212Z,7.50
2019-01-16T06:57:13.104Z,7.83
2019-01-16T07:00:16.273Z,7.40
2019-01-16T07:03:10.134Z,7.22
2019-01-16T07:05:52.426Z,7.42
2019-01-16T07:08:35.792Z,5.58
2019-01-16T07:11:23.821Z,7.53
2019-01-16T07:14:10.769Z,7.15
2019-01-16T07:17:07.822Z,7.10
2019-01-16T07:20:09.408Z,6.62
2019-01-16T07:22:51.507Z,7.05
2019-01-16T07:25:38.152Z,6.63
2019-01-16T07:28:33.905Z,6.35
2019-01-16T07:31:20.565Z,6.37
2019-01-16T07:34:14.550Z,6.40
2019-01-16T07:37:05.815Z,6.40
2019-01-16T07:39:45.216Z,5.95
2019-01-16T07:42:32.095Z,6.12
2019-01-16T07:45:18.053Z,5.97
2019-01-16T07:48:05.862Z,6.37
2019-01-16T07:50:52.882Z,5.90
2019-01-16T07:53:53.349Z,5.35
2019-01-16T07:56:53.411Z,5.60
2019-01-16T07:59:40.329Z,5.60
2019-01-16T08:02:25.135Z,5.67
2019-01-16T08:05:12.105Z,5.60
2019-01-16T08:08:06.519Z,5.85
2019-01-16T08:11:06.539Z,5.25
2019-01-16T08:13:46.607Z,5.28
2019-01-16T08:16:37.724Z,5.87
2019-01-16T08:19:28.525Z,4.83
2019-01-16T08:22:25.873Z,4.70
2019-01-16T08:25:02.023Z,4.60
2019-01-16T08:27:56.203Z,4.72
2019-01-16T08:30:43.068Z,4.90
2019-01-16T08:33:46.523Z,4.85
2019-01-16T08:36:27.930Z,4.62
2019-01-16T08:39:34.705Z,4.60
2019-01-16T08:42:21.669Z,4.90
2019-01-16T08:45:12.451Z,5.85
2019-01-16T08:47:59.329Z,4.55
2019-01-16T08:50:46.124Z,4.92
2019-01-16T08:53:33.126Z,5.10
2019-01-16T08:56:11.871Z,5.00
2019-01-16T08:58:58.823Z,5.37
2019-01-16T09:01:56.543Z,5.60
2019-01-16T09:04:56.611Z,5.97
2019-01-16T09:31:37.118Z,7.90
2019-01-16T09:34:25.174Z,8.88
2019-01-16T09:37:13.219Z,8.98
2019-01-16T09:39:54.658Z,9.68
2019-01-16T09:42:41.296Z,9.58
2019-01-16T09:45:32.417Z,10.23
2019-01-16T09:48:32.693Z,11.85
2019-01-16T09:51:30.155Z,11.25
2019-01-16T09:54:26.781Z,11.45
2019-01-16T09:57:14.172Z,12.73
2019-01-16T10:00:05.301Z,13.00
2019-01-16T10:03:11.792Z,13.50
2019-01-16T10:05:56.935Z,13.05
2019-01-16T10:09:00.291Z,13.83
2019-01-16T10:11:57.256Z,14.58
2019-01-16T10:14:51.260Z,14.90
2019-01-16T10:17:38.039Z,14.68
2019-01-16T10:20:21.925Z,13.50
2019-01-16T10:23:10.143Z,14.58
2019-01-16T10:26:04.413Z,13.88
2019-01-16T10:28:48.710Z,14.83
2019-01-16T10:31:42.643Z,14.83
2019-01-16T10:34:36.561Z,13.38
2019-01-16T10:37:23.158Z,12.30
2019-01-16T10:40:17.250Z,12.47
2019-01-16T10:43:07.856Z,12.85
2019-01-16T10:46:10.871Z,11.38
2019-01-16T10:48:53.841Z,12.63
2019-01-16T10:52:00.274Z,11.60
2019-01-16T10:54:51.127Z,11.60
2019-01-16T10:57:49.742Z,11.40
2019-01-16T11:00:31.306Z,11.33
2019-01-16T11:03:25.425Z,10.88
2019-01-16T11:06:11.959Z,11.45
2019-01-16T11:09:09.081Z,10.68
2019-01-16T11:12:03.204Z,10.18
2019-01-16T11:14:46.139Z,10.63
2019-01-16T11:17:34.162Z,10.40
2019-01-16T11:20:15.145Z,9.93
2019-01-16T11:23:09.183Z,9.60
2019-01-16T11:26:12.275Z,9.28
2019-01-16T11:29:05.869Z,8.55
2019-01-16T11:31:53.890Z,9.10
2019-01-16T11:34:40.391Z,8.55
2019-01-16T11:37:31.510Z,8.50
2019-01-16T11:40:19.632Z,8.70
2019-01-16T11:43:13.913Z,8.60
2019-01-16T11:46:07.799Z,8.68
2019-01-16T11:49:05.897Z,9.38
2019-01-16T11:52:05.954Z,8.23
2019-01-16T11:54:52.660Z,7.95
2019-01-16T11:57:34.923Z,8.73
2019-01-16T12:00:29.071Z,8.08
2019-01-16T12:03:17.119Z,7.85
2019-01-16T12:06:03.886Z,7.58
2019-01-16T12:08:56.498Z,8.23
2019-01-16T12:11:34.426Z,7.40
2019-01-16T12:14:25.440Z,8.10
2019-01-16T12:17:22.712Z,7.00
2019-01-16T12:20:09.311Z,7.30
2019-01-16T12:22:50.889Z,7.50
2019-01-16T12:25:48.036Z,7.50
2019-01-16T12:28:36.026Z,6.85
2019-01-16T12:31:10.582Z,6.90
2019-01-16T12:34:03.950Z,7.40
2019-01-16T12:37:07.368Z,6.25
2019-01-16T12:42:36.272Z,7.25
2019-01-16T12:45:30.602Z,7.50
2019-01-16T12:48:24.683Z,7.80
2019-01-16T12:51:11.528Z,7.10
2019-01-16T12:53:58.156Z,7.80
2019-01-16T12:56:41.897Z,7.83
2019-01-16T12:59:32.389Z,7.80
2019-01-16T13:02:11.478Z,7.77
2019-01-16T13:05:17.574Z,8.28
2019-01-16T13:08:08.388Z,7.28
2019-01-16T13:10:59.459Z,7.20
2019-01-16T13:13:59.432Z,7.78
2019-01-16T13:16:45.909Z,7.90
2019-01-16T13:19:32.736Z,8.15
2019-01-16T13:22:23.964Z,7.72
2019-01-16T13:25:20.847Z,8.08
2019-01-16T13:28:06.533Z,7.78
2019-01-16T13:31:02.603Z,8.10
2019-01-16T13:33:56.777Z,7.45
2019-01-16T13:36:47.696Z,8.13
2019-01-16T13:39:33.780Z,7.83
2019-01-16T13:42:25.369Z,8.10
2019-01-16T13:45:23.243Z,8.33
2019-01-16T13:48:24.400Z,8.35
2019-01-16T13:51:05.140Z,8.33
2019-01-16T13:53:57.727Z,8.03
2019-01-16T13:56:43.299Z,7.50
2019-01-16T13:59:34.132Z,6.87
2019-01-16T14:02:28.411Z,7.10
2019-01-16T14:05:12.843Z,7.75
2019-01-16T14:08:09.771Z,6.97
2019-01-16T14:10:55.859Z,7.08
2019-01-16T14:13:42.565Z,7.22
2019-01-16T14:16:33.790Z,8.43
2019-01-16T14:19:21.919Z,7.40
2019-01-16T14:22:08.772Z,8.00
2019-01-16T14:25:05.969Z,8.10
2019-01-16T14:27:53.990Z,8.03
2019-01-16T14:30:37.080Z,7.40
2019-01-16T14:36:02.694Z,7.70
2019-01-16T14:39:06.016Z,9.35
2019-01-16T14:41:45.143Z,8.83
2019-01-16T14:44:26.787Z,7.20
2019-01-16T14:58:57.369Z,6.62
2019-01-16T15:01:45.547Z,6.53
2019-01-16T15:04:33.658Z,6.53
2019-01-16T15:07:12.555Z,6.47
2019-01-16T15:10:12.692Z,7.40
2019-01-16T15:12:51.851Z,9.20
2019-01-16T15:15:37.607Z,7.47
2019-01-16T15:18:24.253Z,8.30
2019-01-16T15:21:21.218Z,7.15
2019-01-16T15:24:08.022Z,8.03
2019-01-16T15:26:59.247Z,7.78
2019-01-16T15:29:53.293Z,8.00
2019-01-16T15:32:46.830Z,7.92
2019-01-16T15:35:34.721Z,8.03
2019-01-16T15:38:18.112Z,8.20
2019-01-16T15:41:10.059Z,7.90
2019-01-16T15:44:01.351Z,7.53
2019-01-16T15:46:42.733Z,7.90
2019-01-16T15:49:46.054Z,8.40
2019-01-16T15:55:21.832Z,7.95
2019-01-16T15:58:18.138Z,8.18
2019-01-16T16:01:02.859Z,7.65
2019-01-16T16:04:09.306Z,7.72
2019-01-16T16:06:57.458Z,7.60
2019-01-16T16:09:57.645Z,7.80
2019-01-16T16:12:51.622Z,8.45
2019-01-16T16:15:38.118Z,6.70
2019-01-16T16:18:34.552Z,6.65
2019-01-16T16:21:21.448Z,7.25
2019-01-16T16:24:07.639Z,7.30
2019-01-16T16:27:04.962Z,7.42
2019-01-16T16:29:58.974Z,6.62
2019-01-16T16:32:53.251Z,7.72
2019-01-16T16:35:51.537Z,7.43
2019-01-16T16:38:45.921Z,6.78
2019-01-16T16:41:29.181Z,7.50
2019-01-16T16:44:21.982Z,8.60
2019-01-16T16:47:28.615Z,7.30
2019-01-16T16:50:30.625Z,7.50
2019-01-16T16:53:31.389Z,8.25
2019-01-16T16:56:13.394Z,7.83
2019-01-16T16:59:07.405Z,8.30
2019-01-16T17:01:54.106Z,8.43
2019-01-16T17:04:45.099Z,7.65
2019-01-16T17:07:33.861Z,8.10
2019-01-16T17:10:32.181Z,7.42
2019-01-16T17:13:16.128Z,8.18
2019-01-16T17:16:02.643Z,8.28
2019-01-16T17:18:52.096Z,10.70
2019-01-16T17:21:38.504Z,7.67
2019-01-16T17:24:17.984Z,9.03
2019-01-16T17:27:09.260Z,8.03
2019-01-16T17:30:05.837Z,8.03
2019-01-16T17:32:53.953Z,8.23
2019-01-16T17:35:48.041Z,8.20
2019-01-16T17:38:24.392Z,9.43
2019-01-16T17:41:22.391Z,7.45
2019-01-16T17:44:09.493Z,8.33
2019-01-16T17:46:56.050Z,9.25
2019-01-16T17:49:53.397Z,8.08
2019-01-16T17:52:47.382Z,7.83
2019-01-16T17:55:35.393Z,8.33
2019-01-16T17:58:21.654Z,7.70
2019-01-16T18:01:08.450Z,8.65
2019-01-16T18:03:48.223Z,7.97
2019-01-16T18:06:36.306Z,7.65
2019-01-16T18:09:28.648Z,7.72
2019-01-16T18:12:29.066Z,8.33
2019-01-16T18:15:19.988Z,11.20
2019-01-16T18:18:11.005Z,9.10
2019-01-16T18:21:17.245Z,7.80
2019-01-16T18:24:03.902Z,8.35
2019-01-16T18:26:44.878Z,9.03
2019-01-16T18:29:31.591Z,8.58
2019-01-16T18:32:19.728Z,7.90
2019-01-16T18:35:10.723Z,7.83
2019-01-16T18:37:57.599Z,8.10
2019-01-16T18:40:57.851Z,7.33
2019-01-16T18:47:02.825Z,7.85
2019-01-16T18:49:51.063Z,8.80
2019-01-16T18:52:51.746Z,9.10
2019-01-16T18:55:44.379Z,8.70
2019-01-16T18:58:22.989Z,8.23
2019-01-16T19:01:08.640Z,8.38
2019-01-16T19:03:47.684Z,7.42
2019-01-16T19:06:35.905Z,7.60
2019-01-16T19:09:29.812Z,7.53
2019-01-16T19:12:17.995Z,8.05
2019-01-16T19:15:08.934Z,7.97
2019-01-16T19:17:55.611Z,8.40
2019-01-16T19:20:49.654Z,8.43
2019-01-16T19:23:49.699Z,8.55
2019-01-16T19:26:46.995Z,7.90
2019-01-16T19:29:30.998Z,8.53
2019-01-16T19:32:17.936Z,9.48
2019-01-16T19:35:05.475Z,9.90
2019-01-16T19:37:50.316Z,11.25
2019-01-16T19:40:37.201Z,11.97
2019-01-16T19:43:32.431Z,12.93
2019-01-16T19:46:35.938Z,11.48
2019-01-16T19:49:30.035Z,11.28
2019-01-16T19:52:16.636Z,11.43
2019-01-16T19:55:03.299Z,10.60
2019-01-16T19:57:51.398Z,10.75
2019-01-16T20:00:38.290Z,12.00
2019-01-16T20:03:32.431Z,9.40
2019-01-16T20:06:16.780Z,10.08
2019-01-16T20:09:18.104Z,10.35
2019-01-16T20:12:15.501Z,10.32
2019-01-16T20:15:02.246Z,11.30
2019-01-16T20:17:53.426Z,10.58
2019-01-16T20:20:36.423Z,10.70
2019-01-16T20:23:24.495Z,10.75
2019-01-16T20:26:12.521Z,10.75
2019-01-16T20:29:06.604Z,11.40
2019-01-16T20:31:57.407Z,10.90
2019-01-16T20:34:43.193Z,9.93
2019-01-16T20:37:40.324Z,9.93
2019-01-16T20:40:28.202Z,10.43
2019-01-16T20:43:10.682Z,9.20
2019-01-16T20:45:58.736Z,9.98
2019-01-16T20:48:52.066Z,10.08
2019-01-16T20:51:43.059Z,10.75
2019-01-16T20:54:28.179Z,10.80
2019-01-16T20:57:12.237Z,11.05
2019-01-16T21:00:12.355Z,11.38
2019-01-16T21:03:03.239Z,13.62
2019-01-16T21:06:03.561Z,12.70
2019-01-16T21:08:54.685Z,11.08
2019-01-16T21:11:41.310Z,10.78
2019-01-16T21:14:24.016Z,11.48
2019-01-16T21:17:10.919Z,11.53
2019-01-16T21:20:00.298Z,11.63
2019-01-16T21:22:42.558Z,11.40
2019-01-16T21:25:42.579Z,10.95
2019-01-16T21:28:30.614Z,10.88
2019-01-16T21:31:18.627Z,11.95
2019-01-16T21:34:05.144Z,13.05
2019-01-16T21:36:51.616Z,12.40
2019-01-16T21:39:45.671Z,13.08
2019-01-16T21:42:43.829Z,13.32
2019-01-16T21:45:31.845Z,13.20
2019-01-16T21:48:28.805Z,13.80
2019-01-16T21:51:26.071Z,12.37
2019-01-16T21:54:20.427Z,12.03
2019-01-16T21:57:03.719Z,14.58
2019-01-16T21:59:54.542Z,12.80
2019-01-16T22:02:48.507Z,12.23
2019-01-16T22:05:39.207Z,11.73
2019-01-16T22:08:42.327Z,12.53
2019-01-16T22:11:33.422Z,13.53
2019-01-16T22:14:25.803Z,14.00
2019-01-16T22:17:17.654Z,9.67
2019-01-16T22:20:11.864Z,12.75
2019-01-16T22:22:58.831Z,12.07
2019-01-16T22:25:42.068Z,12.03
2019-01-16T22:28:32.078Z,11.45
2019-01-16T22:31:11.109Z,12.15
2019-01-16T22:34:05.198Z,12.98
2019-01-16T22:36:49.022Z,11.75
2019-01-16T22:39:45.382Z,12.95
2019-01-16T22:42:22.939Z,11.38
2019-01-16T22:45:20.105Z,12.28
2019-01-16T22:48:10.866Z,11.55
2019-01-16T22:51:14.017Z,12.80
2019-01-16T22:54:17.423Z,13.30
2019-01-16T22:56:56.561Z,12.78
2019-01-16T22:59:43.513Z,12.75
2019-01-16T23:02:25.090Z,13.58
2019-01-16T23:05:13.088Z,12.95
2019-01-16T23:08:13.081Z,12.43
2019-01-16T23:11:08.390Z,13.35
2019-01-16T23:13:55.450Z,12.33
2019-01-16T23:16:39.167Z,13.30
2019-01-16T23:19:30.146Z,13.53
2019-01-16T23:22:16.862Z,13.62
2019-01-16T23:25:07.887Z,14.23
2019-01-16T23:28:07.371Z,14.07
2019-01-16T23:30:43.339Z,14.73
2019-01-16T23:33:30.060Z,14.10
2019-01-16T23:36:12.789Z,14.38
2019-01-16T23:38:51.972Z,13.60
2019-01-16T23:41:40.003Z,13.83
2019-01-16T23:44:28.043Z,13.55
2019-01-16T23:47:14.996Z,14.00
2019-01-16T23:50:01.681Z,13.20
2019-01-16T23:52:55.567Z,14.30
2019-01-16T23:55:46.610Z,13.47
2019-01-16T23:58:37.628Z,13.80
